This demonstration page uses our WeatherBlox Daily Observations layout. Learn more.

Left ArrowRight Arrow

39.92423, -83.80882

Hourly Observations for November 8, 2015

Temp ( °F °C ) Dew Point ( °F °C ) Humidity (%) Winds ( mph kmh ) Pressure ( in mb ) Visibility ( mi km ) Precip ( " mm )
12:56 am 00:56 Clear 36 2.2 32 0 86 86 NW 5 7 30.41 1030 10 16.0934 0 0
1:56 am 01:56 Clear 37 2.7 32 0 83 83 Calm 30.42 1030 10 16.0934 0 0
2:56 am 02:56 Clear 34 1.1 32 0 92 92 Calm 30.43 1030 10 16.0934 0 0
3:56 am 03:56 Clear 34 1.1 32 0 92 92 ESE 3 6 30.42 1030 10 16.0934 0 0
4:56 am 04:56 Clear 30 -1.1 28 -2.2 92 92 E 3 6 30.44 1031 10 16.0934 0 0
5:56 am 05:56 Clear 29 -1.6 28 -2.2 96 96 ENE 3 6 30.45 1031 10 16.0934 0 0
6:56 am 06:56 Clear 30 -1.1 30 -1.1 100 100 Calm 30.49 1032 10 16.0934 0 0
7:56 am 07:56 Sunny 30 -1.1 29 -1.6 96 96 NE 3 6 30.49 1033 10 16.0934 0 0
8:56 am 08:56 Sunny 38 3.3 36 2.2 93 93 E 3 6 30.5 1033 10 16.0934 0 0
9:56 am 09:56 Sunny 46 7.7 35 1.6 66 66 ESE 8 13 30.51 1033 10 16.0934 0 0
10:56 am 10:56 Sunny 48 8.8 32 0 54 54 ESE 6 9 30.5 1033 10 16.0934 0 0
11:56 am 11:56 Sunny 51 10.5 33 0.5 50 50 VRB 6 9 30.48 1032 10 16.0934 0 0
12:56 pm 12:56 Sunny 52 11.1 32 0 47 47 ESE 6 9 30.45 1031 10 16.0934 0 0
1:56 pm 13:56 Sunny 53 11.6 29 -1.6 40 40 S 7 11 30.42 1030 10 16.0934 0 0
2:56 pm 14:56 Sunny 54 12.2 26 -3.3 34 34 E 5 7 30.4 1030 10 16.0934 0 0
3:56 pm 15:56 Sunny 54 12.2 29 -1.6 39 39 E 3 6 30.39 1029 10 16.0934 0 0
4:56 pm 16:56 Sunny 50 10 30 -1.1 46 46 ESE 5 7 30.39 1029 10 16.0934 0 0
5:56 pm 17:56 Clear 44 6.6 31 -0.5 61 61 E 3 6 30.39 1029 10 16.0934 0 0
6:56 pm 18:56 Clear 40 4.4 30 -1.1 68 68 ENE 3 6 30.4 1029 10 16.0934 0 0
7:56 pm 19:56 Clear 36 2.2 30 -1.1 79 79 E 5 7 30.4 1029 10 16.0934 0 0
8:56 pm 20:56 Clear 35 1.6 29 -1.6 80 80 ENE 3 6 30.39 1029 10 16.0934 0 0
9:56 pm 21:56 Clear 36 2.2 29 -1.6 76 76 ENE 5 7 30.38 1029 10 16.0934 0 0
10:56 pm 22:56 Clear 33 0.5 29 -1.6 86 86 ENE 5 7 30.37 1029 10 16.0934 0 0
11:56 pm 23:56 Clear 32 0 28 -2.2 85 85 ENE 5 7 30.35 1028 10 16.0934 0 0

Powered by AerisWeather